Time;durP1;ratioP1;P1;durP2;ratioP2;P2;SDS_P1;SDS_P2;PMS_P1;PMS_P2;Temp;Humidity;BMP_temperature;BMP_pressure;BME280_temperature;BME280_humidity;BME280_pressure;Samples;Min_cycle;Max_cycle;Signal;HPM_P1;HPM_P2
2021/07/19 00:00:00;;;;;;;8.50;3.90;;;19.30;87.30;;;;;;5079200;28;20597;-80
2021/07/19 00:02:29;;;;;;;4.47;4.07;;;19.20;88.70;;;;;;5078230;28;20550;-77
2021/07/19 00:04:56;;;;;;;4.00;3.33;;;19.20;89.30;;;;;;5081629;28;20549;-80
2021/07/19 00:07:23;;;;;;;6.87;3.70;;;19.10;90.10;;;;;;5081237;28;20798;-78
2021/07/19 00:09:50;;;;;;;5.37;3.70;;;19.00;90.60;;;;;;5081210;28;20478;-79
2021/07/19 00:12:17;;;;;;;4.97;3.77;;;19.00;91.00;;;;;;5076800;28;20806;-78
2021/07/19 00:14:46;;;;;;;5.83;4.30;;;19.00;91.30;;;;;;5076444;28;20481;-79
2021/07/19 00:17:14;;;;;;;5.90;3.70;;;18.90;91.30;;;;;;5077566;28;20530;-79
2021/07/19 00:19:42;;;;;;;4.83;3.37;;;18.90;91.20;;;;;;5081304;28;20487;-79
2021/07/19 00:22:09;;;;;;;4.20;3.73;;;18.90;91.30;;;;;;5079620;28;20429;-78
2021/07/19 00:24:37;;;;;;;6.40;3.53;;;18.80;91.20;;;;;;5084701;28;20478;-79
2021/07/19 00:27:04;;;;;;;5.57;3.67;;;18.80;91.70;;;;;;5083357;28;20531;-79
2021/07/19 00:29:31;;;;;;;4.57;4.00;;;18.70;92.40;;;;;;5098610;28;20452;-78
2021/07/19 00:31:58;;;;;;;5.67;4.10;;;18.70;92.50;;;;;;5098038;28;20455;-78
2021/07/19 00:34:25;;;;;;;4.77;3.73;;;18.70;92.90;;;;;;5095537;28;20461;-79
2021/07/19 00:36:55;;;;;;;5.60;3.67;;;18.60;93.00;;;;;;5089912;28;20480;-78
2021/07/19 00:39:22;;;;;;;6.33;3.37;;;18.60;93.30;;;;;;5082850;28;20442;-79
2021/07/19 00:41:49;;;;;;;7.17;3.07;;;18.60;93.50;;;;;;5080580;28;20435;-78
2021/07/19 00:44:19;;;;;;;5.07;4.40;;;18.60;93.50;;;;;;5082121;28;20447;-77
2021/07/19 00:46:47;;;;;;;3.63;3.33;;;18.50;93.30;;;;;;5082568;28;21056;-78
2021/07/19 00:49:15;;;;;;;5.63;3.00;;;18.50;93.40;;;;;;5089027;28;20448;-78
2021/07/19 00:51:42;;;;;;;3.30;3.00;;;18.40;93.80;;;;;;5090473;28;20457;-78
2021/07/19 00:54:12;;;;;;;5.47;3.60;;;18.40;93.90;;;;;;5078632;28;20429;-78
2021/07/19 00:56:39;;;;;;;3.87;3.57;;;18.30;94.20;;;;;;5078350;28;20448;-78
2021/07/19 00:59:08;;;;;;;3.87;3.40;;;18.30;94.40;;;;;;5079256;28;20505;-78
2021/07/19 01:01:39;;;;;;;7.00;3.97;;;18.30;94.70;;;;;;5080338;28;20468;-79
2021/07/19 01:04:08;;;;;;;4.50;3.80;;;18.20;94.90;;;;;;5084713;28;20462;-78
2021/07/19 01:06:35;;;;;;;4.13;3.47;;;18.20;95.20;;;;;;5091142;28;20497;-79
2021/07/19 01:09:05;;;;;;;6.20;3.50;;;18.10;95.50;;;;;;5092489;28;20991;-78
2021/07/19 01:11:34;;;;;;;3.30;3.00;;;18.10;96.10;;;;;;5093308;28;20581;-79
2021/07/19 01:14:01;;;;;;;4.67;3.30;;;18.10;96.00;;;;;;5081342;28;20458;-79
2021/07/19 01:16:28;;;;;;;5.40;4.00;;;18.10;96.40;;;;;;5081147;28;20485;-79
2021/07/19 01:18:55;;;;;;;4.03;3.63;;;18.10;96.60;;;;;;5083702;28;20548;-79
2021/07/19 01:21:46;;;;;;;5.37;3.27;;;18.10;96.70;;;;;;5096137;28;20427;-79
2021/07/19 01:24:27;;;;;;;7.53;3.60;;;18.10;97.10;;;;;;5087349;28;20472;-79
2021/07/19 01:27:33;;;;;;;3.97;3.67;;;18.00;97.10;;;;;;5080218;28;20481;-79
2021/07/19 01:30:04;;;;;;;7.50;3.70;;;18.00;96.90;;;;;;5079422;28;20438;-79
2021/07/19 01:32:32;;;;;;;6.97;3.10;;;17.90;97.50;;;;;;5080469;28;20781;-79
2021/07/19 01:35:00;;;;;;;4.40;3.97;;;17.90;97.60;;;;;;5080877;28;20427;-79
2021/07/19 01:37:28;;;;;;;4.03;3.63;;;17.80;97.80;;;;;;5080538;28;20445;-79
2021/07/19 01:39:56;;;;;;;3.80;3.33;;;17.80;98.10;;;;;;5079931;28;20495;-79
2021/07/19 01:42:23;;;;;;;3.77;3.17;;;17.80;98.30;;;;;;5080237;28;20473;-79
2021/07/19 01:44:52;;;;;;;4.10;3.40;;;17.80;98.80;;;;;;5080827;28;20460;-79
2021/07/19 01:47:21;;;;;;;6.87;3.10;;;17.70;98.80;;;;;;5081084;28;20455;-79
2021/07/19 01:49:48;;;;;;;3.23;2.93;;;17.70;99.10;;;;;;5081643;28;20460;-79
2021/07/19 01:52:16;;;;;;;5.73;3.37;;;17.70;98.80;;;;;;5081310;28;20555;-79
2021/07/19 01:54:44;;;;;;;3.53;3.23;;;17.70;98.70;;;;;;5082365;28;20516;-79
2021/07/19 01:57:13;;;;;;;5.53;3.60;;;17.70;98.80;;;;;;5093660;28;20445;-79
2021/07/19 01:59:41;;;;;;;4.93;3.80;;;17.60;98.80;;;;;;5095992;28;20476;-79
2021/07/19 02:02:09;;;;;;;3.60;3.20;;;17.60;98.80;;;;;;5086763;28;20434;-79
2021/07/19 02:04:37;;;;;;;3.63;3.20;;;17.60;98.30;;;;;;5080809;28;20436;-78
2021/07/19 02:07:07;;;;;;;7.00;3.80;;;17.60;98.40;;;;;;5077589;28;20512;-79
2021/07/19 02:09:35;;;;;;;5.73;3.57;;;17.60;98.60;;;;;;5076937;28;20836;-79
2021/07/19 02:12:04;;;;;;;6.43;3.57;;;17.60;98.40;;;;;;5077571;28;20477;-79
2021/07/19 02:14:32;;;;;;;4.13;3.50;;;17.50;98.50;;;;;;5090747;28;20433;-79
2021/07/19 02:17:02;;;;;;;4.93;3.27;;;17.50;98.70;;;;;;5092207;28;20427;-79
2021/07/19 02:19:30;;;;;;;4.17;3.10;;;17.40;98.90;;;;;;5083690;28;20481;-79
2021/07/19 02:21:58;;;;;;;3.40;3.10;;;17.50;99.00;;;;;;5097092;28;20416;-79
2021/07/19 02:24:27;;;;;;;3.30;3.10;;;17.40;99.00;;;;;;5101790;28;20411;-78
2021/07/19 02:26:55;;;;;;;4.20;3.60;;;17.50;99.20;;;;;;5101480;28;20510;-78
2021/07/19 02:29:23;;;;;;;5.67;3.57;;;17.50;99.00;;;;;;5097436;28;20472;-79
2021/07/19 02:31:50;;;;;;;5.67;3.47;;;17.40;99.00;;;;;;5086521;28;20477;-79
2021/07/19 02:34:19;;;;;;;4.70;3.80;;;17.30;99.30;;;;;;5085996;28;20919;-79
2021/07/19 02:36:47;;;;;;;4.13;3.50;;;17.30;99.90;;;;;;5085743;28;20456;-79
2021/07/19 02:39:17;;;;;;;4.77;3.27;;;17.20;99.90;;;;;;5085495;28;20473;-79
2021/07/19 02:41:45;;;;;;;4.00;3.70;;;17.20;99.90;;;;;;5085277;28;20511;-79
2021/07/19 02:44:14;;;;;;;4.40;4.00;;;17.20;99.90;;;;;;5084498;28;20483;-79
2021/07/19 02:46:41;;;;;;;4.00;3.70;;;17.20;99.90;;;;;;5085454;28;20554;-79
2021/07/19 02:49:10;;;;;;;4.03;3.30;;;17.20;99.90;;;;;;5084069;28;20515;-79
2021/07/19 02:51:39;;;;;;;4.73;3.67;;;17.10;99.90;;;;;;5082953;28;20815;-79
2021/07/19 02:54:06;;;;;;;4.63;3.30;;;17.10;99.90;;;;;;5082786;28;20931;-79
2021/07/19 02:56:38;;;;;;;5.47;3.80;;;17.10;99.90;;;;;;5082231;28;20513;-79
2021/07/19 02:59:05;;;;;;;3.67;3.37;;;17.00;99.90;;;;;;5082119;28;20958;-79
2021/07/19 03:01:35;;;;;;;4.07;3.70;;;17.00;99.90;;;;;;5081823;28;20461;-78
2021/07/19 03:04:02;;;;;;;4.40;3.63;;;17.00;99.90;;;;;;5081060;28;20438;-79
2021/07/19 03:06:34;;;;;;;4.80;3.70;;;17.00;99.90;;;;;;5082097;28;20540;-78
2021/07/19 03:09:04;;;;;;;3.97;3.57;;;17.00;99.90;;;;;;5081697;28;20988;-78
2021/07/19 03:11:39;;;;;;;5.07;3.43;;;17.00;99.90;;;;;;5082308;28;20431;-78
2021/07/19 03:14:09;;;;;;;4.63;4.23;;;17.00;99.90;;;;;;5082348;28;20451;-78
2021/07/19 03:16:37;;;;;;;4.03;3.60;;;16.90;99.90;;;;;;5090000;28;20506;-78
2021/07/19 03:19:09;;;;;;;4.23;3.83;;;16.90;99.90;;;;;;5097227;28;20438;-79
2021/07/19 03:21:39;;;;;;;4.53;3.93;;;16.80;99.90;;;;;;5084453;28;20548;-78
2021/07/19 03:24:08;;;;;;;4.30;3.90;;;16.80;99.90;;;;;;5081459;28;20449;-78
2021/07/19 03:26:39;;;;;;;4.13;3.73;;;16.70;99.90;;;;;;5080948;28;20582;-79
2021/07/19 03:29:07;;;;;;;5.83;4.17;;;16.70;99.90;;;;;;5082255;28;20450;-78
2021/07/19 03:31:35;;;;;;;4.20;3.40;;;16.70;99.90;;;;;;5085406;28;21006;-79
2021/07/19 03:34:03;;;;;;;5.93;4.50;;;16.70;99.90;;;;;;5083185;28;20494;-79
2021/07/19 03:36:32;;;;;;;4.70;3.73;;;16.70;99.90;;;;;;5082409;28;20422;-80
2021/07/19 03:39:00;;;;;;;6.07;3.90;;;16.60;99.90;;;;;;5082101;28;20511;-79
2021/07/19 03:41:30;;;;;;;5.33;4.10;;;16.60;99.90;;;;;;5083433;28;20896;-80
2021/07/19 03:43:59;;;;;;;4.33;3.90;;;16.70;99.90;;;;;;5082840;28;20471;-79
2021/07/19 03:46:26;;;;;;;5.40;4.07;;;16.70;99.90;;;;;;5086358;28;20483;-80
2021/07/19 03:48:54;;;;;;;5.67;3.60;;;16.70;99.90;;;;;;5098601;28;20473;-80
2021/07/19 03:51:22;;;;;;;6.33;3.93;;;16.70;99.90;;;;;;5085054;28;20506;-81
2021/07/19 03:53:49;;;;;;;6.07;4.10;;;16.70;99.90;;;;;;5082867;28;20531;-79
2021/07/19 03:56:17;;;;;;;5.67;4.20;;;16.70;99.90;;;;;;5084977;28;20426;-79
2021/07/19 03:58:46;;;;;;;5.17;3.80;;;16.70;99.90;;;;;;5096646;28;20456;-79
2021/07/19 04:01:16;;;;;;;5.30;3.83;;;16.70;99.90;;;;;;5097825;28;20447;-79
2021/07/19 04:03:48;;;;;;;7.70;4.30;;;16.70;99.90;;;;;;5097589;28;20450;-78
2021/07/19 04:06:17;;;;;;;4.13;3.67;;;16.70;99.90;;;;;;5096324;28;20518;-79
2021/07/19 04:08:45;;;;;;;6.97;3.90;;;16.70;99.90;;;;;;5084835;28;20467;-79
2021/07/19 04:11:15;;;;;;;3.53;3.23;;;16.70;99.90;;;;;;5083089;28;20766;-79
2021/07/19 04:13:42;;;;;;;4.93;3.87;;;16.80;99.90;;;;;;5082367;28;20823;-80
2021/07/19 04:16:10;;;;;;;7.00;4.30;;;16.90;99.90;;;;;;5085942;28;20479;-79
2021/07/19 04:18:38;;;;;;;5.13;4.13;;;16.90;99.90;;;;;;5085254;28;20568;-80
2021/07/19 04:21:05;;;;;;;6.40;4.13;;;16.90;99.90;;;;;;5084628;28;20435;-79
2021/07/19 04:23:33;;;;;;;5.43;4.47;;;16.90;99.90;;;;;;5086068;28;20456;-79
2021/07/19 04:26:00;;;;;;;5.07;3.70;;;16.90;99.90;;;;;;5079827;28;20476;-79
2021/07/19 04:28:27;;;;;;;5.50;3.90;;;17.00;99.90;;;;;;5079040;28;20935;-79
2021/07/19 04:30:54;;;;;;;4.80;4.00;;;17.00;99.90;;;;;;5079431;28;20512;-79
2021/07/19 04:33:23;;;;;;;4.07;3.70;;;17.10;99.90;;;;;;5079061;28;20431;-79
2021/07/19 04:35:52;;;;;;;4.23;3.63;;;17.20;99.70;;;;;;5082822;28;20548;-80
2021/07/19 04:38:23;;;;;;;6.20;3.60;;;17.20;99.20;;;;;;5082544;28;20447;-79
2021/07/19 04:40:52;;;;;;;5.80;3.70;;;17.30;98.20;;;;;;5089194;28;20507;-79
2021/07/19 04:43:20;;;;;;;4.80;3.90;;;17.30;97.90;;;;;;5095236;28;20459;-79
2021/07/19 04:45:49;;;;;;;4.10;3.70;;;17.40;97.50;;;;;;5082677;28;20434;-79
2021/07/19 04:48:17;;;;;;;7.30;4.70;;;17.40;97.40;;;;;;5086274;28;20493;-79
2021/07/19 04:50:45;;;;;;;7.73;4.00;;;17.60;96.80;;;;;;5096014;28;20478;-79
2021/07/19 04:53:15;;;;;;;5.30;4.10;;;17.60;96.20;;;;;;5096167;28;20555;-79
2021/07/19 04:55:44;;;;;;;4.47;3.67;;;17.80;95.10;;;;;;5084613;28;20457;-79
2021/07/19 04:58:15;;;;;;;3.87;3.57;;;18.10;94.60;;;;;;5080842;28;20424;-79
2021/07/19 05:00:46;;;;;;;3.77;3.40;;;18.30;93.10;;;;;;5080317;28;20502;-78
2021/07/19 05:03:15;;;;;;;5.73;3.47;;;18.60;91.30;;;;;;5078524;28;20491;-79
2021/07/19 05:05:43;;;;;;;4.53;3.17;;;19.10;88.80;;;;;;5088360;28;20414;-79
2021/07/19 05:08:11;;;;;;;5.47;3.00;;;19.80;83.10;;;;;;5098101;28;20491;-79
2021/07/19 05:10:41;;;;;;;4.37;3.83;;;20.60;75.70;;;;;;5121182;22;21039;-78
2021/07/19 05:13:11;;;;;;;6.50;3.67;;;21.20;68.10;;;;;;5098230;28;21002;-78
2021/07/19 05:15:40;;;;;;;7.50;4.10;;;21.40;66.00;;;;;;5098296;28;20863;-78
2021/07/19 05:18:07;;;;;;;4.50;4.10;;;21.10;67.40;;;;;;5099117;28;20781;-78
2021/07/19 05:20:36;;;;;;;5.07;3.53;;;21.40;66.00;;;;;;5101937;28;20473;-77
2021/07/19 05:23:04;;;;;;;6.10;3.43;;;21.20;66.60;;;;;;5096875;28;20460;-78
2021/07/19 05:25:34;;;;;;;5.47;3.77;;;21.90;63.70;;;;;;5100651;28;20433;-79
2021/07/19 05:28:08;;;;;;;4.30;3.87;;;21.40;64.50;;;;;;5098747;28;20456;-79
2021/07/19 05:30:36;;;;;;;5.97;4.27;;;21.60;64.70;;;;;;5104381;28;20451;-79
2021/07/19 05:33:04;;;;;;;5.80;3.70;;;21.90;63.00;;;;;;5104452;28;20788;-78
2021/07/19 05:35:31;;;;;;;5.40;3.93;;;21.70;63.70;;;;;;5112659;28;20417;-79
2021/07/19 05:37:58;;;;;;;6.60;4.10;;;21.80;63.90;;;;;;5114630;27;20444;-79
2021/07/19 05:40:25;;;;;;;4.93;3.90;;;22.20;63.20;;;;;;5112253;27;20441;-78
2021/07/19 05:42:52;;;;;;;5.13;4.37;;;22.50;60.90;;;;;;5115778;28;20436;-78
2021/07/19 05:45:21;;;;;;;5.33;4.20;;;22.10;62.60;;;;;;5113391;28;20464;-78
2021/07/19 05:47:48;;;;;;;4.20;3.80;;;22.40;61.00;;;;;;5104663;28;20463;-79
2021/07/19 05:50:15;;;;;;;8.73;3.77;;;22.40;62.70;;;;;;5104905;28;20451;-79
2021/07/19 05:52:42;;;;;;;5.47;4.57;;;23.20;58.50;;;;;;5112995;27;20438;-78
2021/07/19 05:55:10;;;;;;;7.30;4.43;;;23.20;58.10;;;;;;5115933;28;20442;-78
2021/07/19 05:57:37;;;;;;;5.40;4.60;;;22.70;61.00;;;;;;5101211;28;20789;-78
2021/07/19 06:00:09;;;;;;;7.43;4.60;;;22.70;61.00;;;;;;5104514;28;20469;-77
2021/07/19 06:02:38;;;;;;;5.07;4.20;;;22.80;61.10;;;;;;5109852;28;20455;-78
2021/07/19 06:05:06;;;;;;;6.43;4.57;;;22.80;60.40;;;;;;5112341;28;20461;-79
2021/07/19 06:07:33;;;;;;;6.13;5.10;;;22.30;62.10;;;;;;5103353;28;20570;-79
2021/07/19 06:10:00;;;;;;;6.90;5.30;;;22.10;62.40;;;;;;5101844;28;20558;-78
2021/07/19 06:12:28;;;;;;;7.73;5.27;;;22.20;63.00;;;;;;5103202;28;20481;-79
2021/07/19 06:14:55;;;;;;;5.63;5.03;;;22.50;60.90;;;;;;5107816;28;20463;-78
2021/07/19 06:17:22;;;;;;;7.87;5.50;;;22.30;62.60;;;;;;5101763;28;20519;-79
2021/07/19 06:19:50;;;;;;;7.83;5.57;;;22.60;60.90;;;;;;5098356;28;20475;-78
2021/07/19 06:22:17;;;;;;;7.93;5.10;;;22.30;62.40;;;;;;5101847;28;20451;-78
2021/07/19 06:24:45;;;;;;;6.33;4.70;;;22.40;62.90;;;;;;5104153;28;20455;-77
2021/07/19 06:27:11;;;;;;;5.63;4.90;;;23.40;58.50;;;;;;5103987;28;20490;-78
2021/07/19 06:29:39;;;;;;;6.13;4.33;;;23.70;56.90;;;;;;5103641;28;20512;-80
2021/07/19 06:32:07;;;;;;;6.40;5.60;;;24.20;55.40;;;;;;5107307;28;20441;-78
2021/07/19 06:34:34;;;;;;;6.63;5.27;;;24.00;54.90;;;;;;5104973;28;20477;-78
2021/07/19 06:37:06;;;;;;;7.30;5.47;;;23.50;57.20;;;;;;5100427;28;20455;-78
2021/07/19 06:39:33;;;;;;;5.60;4.70;;;23.60;57.20;;;;;;5103574;28;20457;-78
2021/07/19 06:42:00;;;;;;;5.77;5.20;;;24.10;54.90;;;;;;5104324;28;20462;-78
2021/07/19 06:44:27;;;;;;;8.50;5.30;;;24.20;52.80;;;;;;5100631;28;20481;-78
2021/07/19 06:46:57;;;;;;;8.30;5.90;;;23.80;55.20;;;;;;5100958;28;20462;-78
2021/07/19 06:49:24;;;;;;;5.30;4.80;;;24.50;53.10;;;;;;5101915;28;20818;-79
2021/07/19 06:51:51;;;;;;;7.53;4.77;;;24.10;53.60;;;;;;5098666;28;20491;-78
2021/07/19 06:54:20;;;;;;;5.37;4.87;;;24.20;54.40;;;;;;5100876;28;20440;-78
2021/07/19 06:56:47;;;;;;;6.10;4.30;;;24.60;53.20;;;;;;5110014;27;20427;-77
2021/07/19 06:59:14;;;;;;;9.37;4.83;;;24.70;53.20;;;;;;5114804;28;20446;-77
2021/07/19 07:01:41;;;;;;;5.07;4.40;;;24.70;52.50;;;;;;5106290;28;20430;-77
2021/07/19 07:04:10;;;;;;;6.40;5.47;;;24.20;52.80;;;;;;5109483;28;20918;-79
2021/07/19 07:06:37;;;;;;;9.33;5.40;;;23.20;57.10;;;;;;5102770;28;20455;-77
2021/07/19 07:09:05;;;;;;;6.10;4.90;;;22.50;60.90;;;;;;5103043;28;20567;-78
2021/07/19 07:11:34;;;;;;;9.47;5.97;;;22.40;62.20;;;;;;5100285;28;20483;-79
2021/07/19 07:14:01;;;;;;;6.80;5.20;;;22.60;60.90;;;;;;5096724;28;20460;-77
2021/07/19 07:16:28;;;;;;;7.27;5.70;;;22.70;61.10;;;;;;5097206;28;20455;-79
2021/07/19 07:18:56;;;;;;;5.93;5.33;;;22.50;60.90;;;;;;5096082;28;20501;-77
2021/07/19 07:21:23;;;;;;;7.93;4.77;;;22.50;60.90;;;;;;5096834;28;20517;-76
2021/07/19 07:23:50;;;;;;;9.90;4.90;;;22.40;60.80;;;;;;5106712;28;20439;-79
2021/07/19 07:26:18;;;;;;;6.33;5.27;;;22.40;62.20;;;;;;5109678;28;20529;-78
2021/07/19 07:28:46;;;;;;;6.80;6.07;;;22.40;62.00;;;;;;5112657;28;20964;-78
2021/07/19 07:31:13;;;;;;;7.13;6.37;;;22.40;61.90;;;;;;5107632;28;20443;-77
2021/07/19 07:33:40;;;;;;;6.00;5.40;;;22.40;61.80;;;;;;5102548;28;20443;-79
2021/07/19 07:36:08;;;;;;;7.60;5.23;;;22.50;60.90;;;;;;5098384;28;20502;-77
2021/07/19 07:38:35;;;;;;;6.53;5.87;;;22.60;60.90;;;;;;5110539;28;20402;-78
2021/07/19 07:41:03;;;;;;;6.60;5.50;;;22.80;61.10;;;;;;5117590;28;20446;-78
2021/07/19 07:43:30;;;;;;;7.00;5.70;;;22.70;61.00;;;;;;5114499;28;20428;-78
2021/07/19 07:45:58;;;;;;;8.00;5.80;;;22.80;61.10;;;;;;5109326;28;20456;-78
2021/07/19 07:48:25;;;;;;;10.03;5.57;;;22.90;60.00;;;;;;5097486;28;20541;-79
2021/07/19 07:50:52;;;;;;;11.37;6.13;;;23.00;60.70;;;;;;5102933;28;20481;-80
2021/07/19 07:53:19;;;;;;;6.43;5.03;;;22.90;59.60;;;;;;5110186;28;20453;-79
2021/07/19 07:55:45;;;;;;;8.17;5.40;;;22.90;60.20;;;;;;5109543;27;20463;-78
2021/07/19 07:58:12;;;;;;;9.43;5.90;;;23.00;59.30;;;;;;5105476;28;20482;-77
2021/07/19 08:00:39;;;;;;;7.67;5.40;;;23.10;58.50;;;;;;5106337;28;20468;-79
2021/07/19 08:03:08;;;;;;;5.57;5.07;;;23.00;58.30;;;;;;5102086;28;20455;-78
2021/07/19 08:05:35;;;;;;;7.90;5.57;;;23.10;58.90;;;;;;5103667;28;20487;-78
2021/07/19 08:08:02;;;;;;;7.97;5.83;;;23.30;58.60;;;;;;5103830;28;20473;-78
2021/07/19 08:10:29;;;;;;;7.73;5.10;;;23.40;58.50;;;;;;5100177;28;20489;-80
2021/07/19 08:12:57;;;;;;;5.80;5.30;;;23.50;58.00;;;;;;5099849;28;20485;-79
2021/07/19 08:15:24;;;;;;;5.70;5.10;;;23.60;57.50;;;;;;5102968;28;20432;-78
2021/07/19 08:17:51;;;;;;;6.10;5.30;;;23.70;57.30;;;;;;5097146;28;20476;-78
2021/07/19 08:20:19;;;;;;;8.37;4.40;;;23.80;55.80;;;;;;5094126;28;20500;-78
2021/07/19 08:22:47;;;;;;;6.13;5.03;;;23.90;55.40;;;;;;5097116;28;20464;-78
2021/07/19 08:25:15;;;;;;;5.03;4.27;;;23.90;55.10;;;;;;5099367;28;20787;-77
2021/07/19 08:27:42;;;;;;;5.37;4.97;;;23.90;55.30;;;;;;5097956;28;20856;-78
2021/07/19 08:30:11;;;;;;;6.23;5.40;;;24.00;54.30;;;;;;5105451;28;20930;-78
2021/07/19 08:32:37;;;;;;;5.67;5.00;;;24.00;54.20;;;;;;5099526;28;20459;-78
2021/07/19 08:35:09;;;;;;;5.53;4.80;;;24.00;54.70;;;;;;5097832;28;20502;-78
2021/07/19 08:37:38;;;;;;;4.97;4.50;;;24.10;54.20;;;;;;5101993;28;20555;-77
2021/07/19 08:40:08;;;;;;;6.97;4.63;;;24.20;54.20;;;;;;5096957;28;20990;-79
2021/07/19 08:42:35;;;;;;;6.73;4.50;;;24.20;53.10;;;;;;5096915;28;20455;-78
2021/07/19 08:45:06;;;;;;;6.90;4.60;;;24.30;53.40;;;;;;5107596;28;20460;-80
2021/07/19 08:47:35;;;;;;;5.77;5.20;;;24.40;54.10;;;;;;5102391;28;20431;-79
2021/07/19 08:50:02;;;;;;;8.20;5.00;;;24.30;52.90;;;;;;5099411;28;20482;-79
2021/07/19 08:52:29;;;;;;;7.77;4.37;;;24.40;53.00;;;;;;5105113;28;20462;-78
2021/07/19 08:54:59;;;;;;;5.57;5.07;;;24.40;53.00;;;;;;5101045;28;20455;-79
2021/07/19 08:57:28;;;;;;;4.90;4.40;;;24.50;53.10;;;;;;5102595;28;20453;-79
2021/07/19 08:59:58;;;;;;;5.37;4.80;;;24.40;53.00;;;;;;5103872;28;20824;-78
2021/07/19 09:02:25;;;;;;;7.23;5.20;;;24.40;53.00;;;;;;5098793;28;20458;-78
2021/07/19 09:04:52;;;;;;;5.40;4.30;;;24.70;54.00;;;;;;5098051;28;20881;-79
2021/07/19 09:07:19;;;;;;;4.80;4.40;;;24.80;53.30;;;;;;5097921;28;20464;-79
2021/07/19 09:09:50;;;;;;;5.00;4.37;;;24.90;52.10;;;;;;5095784;28;20487;-78
2021/07/19 09:12:18;;;;;;;6.63;4.93;;;24.90;52.20;;;;;;5095951;28;20541;-78
2021/07/19 09:14:47;;;;;;;8.43;5.00;;;25.00;52.40;;;;;;5096840;28;20448;-78
2021/07/19 09:17:22;;;;;;;6.53;4.50;;;25.30;51.20;;;;;;5096435;28;20453;-78
2021/07/19 09:19:49;;;;;;;7.50;4.50;;;25.20;50.90;;;;;;5099075;28;20463;-77
2021/07/19 09:22:23;;;;;;;5.70;4.70;;;25.20;50.40;;;;;;5101958;28;20496;-78
2021/07/19 09:24:50;;;;;;;6.03;4.63;;;25.40;50.40;;;;;;5107589;28;20562;-78
2021/07/19 09:27:20;;;;;;;5.17;4.67;;;25.70;49.70;;;;;;5114772;28;20434;-79
2021/07/19 09:29:48;;;;;;;5.00;4.50;;;26.00;49.10;;;;;;5112871;28;20526;-79
2021/07/19 09:32:16;;;;;;;5.30;4.60;;;26.00;49.00;;;;;;5113445;28;20453;-79
2021/07/19 09:34:43;;;;;;;5.97;4.40;;;26.10;48.50;;;;;;5111179;28;20945;-78
2021/07/19 09:37:11;;;;;;;6.50;4.57;;;26.00;49.20;;;;;;5107300;28;20428;-77
2021/07/19 09:39:44;;;;;;;4.73;4.27;;;26.10;48.40;;;;;;5099060;28;20484;-78
2021/07/19 09:42:13;;;;;;;5.20;4.80;;;26.10;47.80;;;;;;5104153;28;20468;-78
2021/07/19 09:44:42;;;;;;;7.40;5.47;;;26.30;47.60;;;;;;5105919;28;20441;-79
2021/07/19 09:47:12;;;;;;;6.57;5.10;;;26.00;47.90;;;;;;5108772;28;20449;-78
2021/07/19 09:49:39;;;;;;;5.67;5.17;;;26.00;49.00;;;;;;5112131;28;20467;-78
2021/07/19 09:52:09;;;;;;;7.03;5.30;;;26.00;48.40;;;;;;5109032;28;20430;-78
2021/07/19 09:54:39;;;;;;;9.90;5.40;;;26.30;47.60;;;;;;5098644;28;20463;-78
2021/07/19 09:57:06;;;;;;;9.43;4.73;;;26.00;48.80;;;;;;5095431;28;20487;-79
2021/07/19 09:59:34;;;;;;;5.00;4.50;;;25.70;50.00;;;;;;5096327;28;20502;-79
2021/07/19 10:02:03;;;;;;;5.30;4.60;;;25.60;49.40;;;;;;5095070;28;20434;-78
2021/07/19 10:04:41;;;;;;;8.43;5.20;;;25.30;51.20;;;;;;5097924;28;20464;-80
2021/07/19 10:07:08;;;;;;;5.40;4.90;;;25.50;49.40;;;;;;5099915;28;20460;-80
2021/07/19 10:09:38;;;;;;;7.87;4.73;;;25.80;48.10;;;;;;5104206;28;20481;-79
2021/07/19 10:12:17;;;;;;;6.63;4.90;;;25.80;48.30;;;;;;5102859;28;20796;-78
2021/07/19 10:14:47;;;;;;;6.33;4.87;;;25.50;49.80;;;;;;5106660;28;20903;-78
2021/07/19 10:17:16;;;;;;;5.60;4.27;;;25.80;48.80;;;;;;5109687;28;20418;-78
2021/07/19 10:19:43;;;;;;;8.13;4.47;;;26.20;48.00;;;;;;5098696;28;20445;-80
2021/07/19 10:22:11;;;;;;;6.13;4.97;;;26.60;46.60;;;;;;5096683;28;20466;-79
2021/07/19 10:24:40;;;;;;;5.20;4.70;;;26.60;44.60;;;;;;5094241;28;20412;-79
2021/07/19 10:27:11;;;;;;;7.37;4.60;;;26.70;45.40;;;;;;5097635;28;20485;-79
2021/07/19 10:29:38;;;;;;;5.70;4.30;;;26.60;44.60;;;;;;5098403;28;20588;-79
2021/07/19 10:32:08;;;;;;;7.90;4.30;;;26.60;44.60;;;;;;5098847;28;20444;-78
2021/07/19 10:34:36;;;;;;;5.00;4.60;;;27.00;44.20;;;;;;5093924;28;20516;-79
2021/07/19 10:37:09;;;;;;;6.93;4.40;;;27.20;44.50;;;;;;5094747;28;20436;-77
2021/07/19 10:39:39;;;;;;;8.80;4.40;;;27.30;42.40;;;;;;5094805;28;20537;-80
2021/07/19 10:42:08;;;;;;;4.20;3.63;;;27.40;42.00;;;;;;5095009;28;20508;-78
2021/07/19 10:44:38;;;;;;;5.30;3.97;;;27.60;40.50;;;;;;5100378;28;20433;-79
2021/07/19 10:47:14;;;;;;;8.57;4.13;;;27.50;40.20;;;;;;5105492;28;20511;-79
2021/07/19 10:49:54;;;;;;;6.60;3.40;;;27.50;39.40;;;;;;5102496;28;20937;-79
2021/07/19 10:52:29;;;;;;;4.80;4.40;;;27.80;39.30;;;;;;5103389;28;20468;-79
2021/07/19 10:54:56;;;;;;;9.53;3.90;;;27.50;39.50;;;;;;5104252;28;20515;-79
2021/07/19 10:57:35;;;;;;;4.90;4.20;;;27.30;40.80;;;;;;5103769;28;20489;-80
2021/07/19 11:00:04;;;;;;;7.43;3.53;;;27.40;41.50;;;;;;5098517;28;20442;-78
2021/07/19 11:02:31;;;;;;;4.60;3.20;;;27.50;42.10;;;;;;5098687;28;20924;-79
2021/07/19 11:05:00;;;;;;;5.17;3.60;;;27.90;39.80;;;;;;5102787;28;20523;-78
2021/07/19 11:07:27;;;;;;;4.00;3.60;;;27.60;38.60;;;;;;5098717;28;20545;-77
2021/07/19 11:09:55;;;;;;;5.80;3.80;;;27.00;40.50;;;;;;5128865;22;20568;-79
2021/07/19 11:12:22;;;;;;;5.07;4.00;;;27.00;40.70;;;;;;5107417;28;20480;-79
2021/07/19 11:14:52;;;;;;;3.60;3.20;;;27.30;40.10;;;;;;5101910;28;21093;-80
2021/07/19 11:17:20;;;;;;;5.33;4.40;;;27.40;40.40;;;;;;5101844;28;20437;-79
2021/07/19 11:19:48;;;;;;;4.40;3.43;;;27.50;41.00;;;;;;5101928;28;20503;-79
2021/07/19 11:22:24;;;;;;;8.03;3.93;;;27.10;41.20;;;;;;5101089;28;20454;-80
2021/07/19 11:24:54;;;;;;;4.27;3.67;;;26.90;41.00;;;;;;5102286;28;20450;-79
2021/07/19 11:27:33;;;;;;;4.47;3.63;;;26.80;41.00;;;;;;5104432;28;20447;-79
2021/07/19 11:30:04;;;;;;;4.70;4.30;;;26.90;41.00;;;;;;5111097;28;20445;-79
2021/07/19 11:32:32;;;;;;;6.00;4.53;;;27.10;39.80;;;;;;5118112;28;20483;-81
2021/07/19 11:35:11;;;;;;;5.27;4.67;;;27.20;41.70;;;;;;5116066;28;20476;-80
2021/07/19 11:37:41;;;;;;;5.03;4.27;;;27.20;41.30;;;;;;5120343;27;20435;-80
2021/07/19 11:40:10;;;;;;;4.83;3.43;;;27.50;39.80;;;;;;5120863;27;20459;-80
2021/07/19 11:42:42;;;;;;;4.30;3.60;;;27.60;39.60;;;;;;5120969;27;20435;-79
2021/07/19 11:45:12;;;;;;;3.83;3.43;;;27.60;38.70;;;;;;5116245;27;20485;-80
2021/07/19 11:47:45;;;;;;;7.00;4.57;;;27.90;37.30;;;;;;5105316;28;20463;-79
2021/07/19 11:50:14;;;;;;;4.73;4.30;;;27.50;36.90;;;;;;5117341;27;20488;-80
2021/07/19 11:52:44;;;;;;;5.57;4.00;;;27.70;38.30;;;;;;5120644;27;20427;-80
2021/07/19 11:55:13;;;;;;;7.10;4.60;;;27.60;39.20;;;;;;5119387;27;20477;-80
2021/07/19 11:57:45;;;;;;;4.37;3.97;;;27.90;39.20;;;;;;5120552;27;20466;-81
2021/07/19 12:00:24;;;;;;;4.80;4.30;;;28.00;38.60;;;;;;5120365;27;20489;-80
2021/07/19 12:02:58;;;;;;;6.03;4.07;;;28.00;36.60;;;;;;5119346;27;20434;-79
2021/07/19 12:05:24;;;;;;;5.30;4.80;;;27.90;36.90;;;;;;5117317;27;20412;-80
2021/07/19 12:08:02;;;;;;;8.10;4.90;;;27.80;37.60;;;;;;5104248;28;20439;-79
2021/07/19 12:10:31;;;;;;;4.90;4.40;;;27.70;38.20;;;;;;5106641;28;20474;-81
2021/07/19 12:12:58;;;;;;;6.07;4.17;;;27.80;37.10;;;;;;5105297;28;20462;-79
2021/07/19 12:15:25;;;;;;;4.43;4.03;;;27.60;37.80;;;;;;5105904;28;20456;-80
2021/07/19 12:17:56;;;;;;;4.50;4.07;;;27.80;36.60;;;;;;5106566;28;20441;-80
2021/07/19 12:20:25;;;;;;;5.20;4.10;;;27.80;36.90;;;;;;5106654;28;20508;-80
2021/07/19 12:22:54;;;;;;;5.70;5.20;;;27.50;37.60;;;;;;5106214;28;20508;-80
2021/07/19 12:25:23;;;;;;;8.73;4.93;;;27.70;36.80;;;;;;5105720;28;20433;-80
2021/07/19 12:27:58;;;;;;;5.30;4.30;;;27.60;36.80;;;;;;5106318;28;20942;-80
2021/07/19 12:30:26;;;;;;;5.20;4.70;;;27.60;36.80;;;;;;5105503;28;20700;-80
2021/07/19 12:32:54;;;;;;;4.90;4.20;;;27.60;36.60;;;;;;5104787;28;20444;-80
2021/07/19 12:35:24;;;;;;;10.53;3.83;;;27.60;36.40;;;;;;5106673;28;20451;-80
2021/07/19 12:37:56;;;;;;;8.17;4.33;;;27.80;36.60;;;;;;5107086;28;20454;-80
2021/07/19 12:40:26;;;;;;;5.60;4.60;;;28.00;36.00;;;;;;5106077;28;20448;-80
2021/07/19 12:42:53;;;;;;;4.73;4.17;;;27.90;35.20;;;;;;5108025;28;20437;-80
2021/07/19 12:45:21;;;;;;;4.30;3.90;;;27.90;35.20;;;;;;5110786;28;20437;-79
2021/07/19 12:47:51;;;;;;;3.87;3.57;;;27.90;35.20;;;;;;5115715;28;20456;-80
2021/07/19 12:50:18;;;;;;;4.50;3.50;;;28.00;35.20;;;;;;5119063;27;20456;-80
2021/07/19 12:52:45;;;;;;;4.57;4.17;;;27.90;35.20;;;;;;5119262;27;20421;-81